Time;durP1;ratioP1;P1;durP2;ratioP2;P2;SDS_P1;SDS_P2;PMS_P1;PMS_P2;Temp;Humidity;BMP_temperature;BMP_pressure;BME280_temperature;BME280_humidity;BME280_pressure;Samples;Min_cycle;Max_cycle;Signal;HPM_P1;HPM_P2
2022/08/22 04:02:02;;;;;;;0.60;0.20;;;17.50;99.90;;;;;;5292359;23;20507;-71
2022/08/22 04:04:58;;;;;;;0.20;0.20;;;17.50;99.90;;;;;;4906865;29;20848;-71
2022/08/22 04:07:51;;;;;;;0.20;0.20;;;17.50;99.90;;;;;;4912612;29;20480;-72
2022/08/22 04:10:48;;;;;;;1.33;0.93;;;17.40;99.90;;;;;;4912320;29;20479;-72
2022/08/22 04:13:42;;;;;;;0.20;0.20;;;17.40;99.90;;;;;;4909494;29;20996;-72
2022/08/22 04:16:25;;;;;;;0.40;0.40;;;17.40;99.90;;;;;;4910643;29;20472;-72
2022/08/22 04:19:26;;;;;;;0.27;0.27;;;17.30;99.90;;;;;;4913827;29;20475;-72
2022/08/22 04:22:17;;;;;;;0.20;0.20;;;17.30;99.90;;;;;;4907417;29;21354;-70
2022/08/22 04:24:53;;;;;;;0.20;0.20;;;17.30;99.90;;;;;;4904598;29;20473;-73
2022/08/22 04:27:27;;;;;;;0.20;0.20;;;17.30;99.90;;;;;;4912773;29;20491;-71
2022/08/22 04:30:01;;;;;;;0.20;0.20;;;17.30;99.90;;;;;;4911976;29;20893;-73
2022/08/22 04:32:35;;;;;;;0.10;0.10;;;17.30;99.90;;;;;;4913178;29;20493;-72
2022/08/22 04:35:08;;;;;;;0.50;0.50;;;17.30;99.90;;;;;;4912678;29;20476;-71
2022/08/22 04:37:41;;;;;;;0.30;0.30;;;17.20;99.90;;;;;;4911926;29;20469;-72
2022/08/22 04:40:15;;;;;;;0.20;0.20;;;17.20;99.90;;;;;;4908865;29;20483;-72
2022/08/22 04:42:46;;;;;;;0.20;0.20;;;17.20;99.90;;;;;;4908007;29;20482;-72
2022/08/22 04:45:19;;;;;;;0.20;0.20;;;17.20;99.90;;;;;;4913167;29;20476;-73
2022/08/22 04:47:52;;;;;;;0.20;0.20;;;17.20;99.90;;;;;;4906101;29;20460;-73
2022/08/22 04:50:26;;;;;;;0.60;0.60;;;17.20;99.90;;;;;;4911836;29;20497;-72
2022/08/22 04:53:04;;;;;;;0.30;0.30;;;17.20;99.90;;;;;;4913383;29;20485;-72
2022/08/22 04:55:36;;;;;;;0.20;0.20;;;17.10;99.90;;;;;;4911816;29;20476;-72
2022/08/22 04:58:14;;;;;;;0.20;0.20;;;17.10;99.90;;;;;;4912939;29;20476;-73
2022/08/22 05:00:51;;;;;;;0.10;0.10;;;17.10;99.90;;;;;;4904385;29;20511;-72
2022/08/22 05:03:23;;;;;;;0.20;0.20;;;17.20;99.90;;;;;;4912342;29;20480;-73
2022/08/22 05:05:54;;;;;;;0.20;0.20;;;17.20;99.90;;;;;;4907220;29;20962;-73
2022/08/22 05:08:25;;;;;;;0.20;0.20;;;17.20;99.90;;;;;;4910282;29;20930;-72
2022/08/22 05:10:53;;;;;;;0.40;0.40;;;17.30;99.90;;;;;;4910506;29;20861;-73
2022/08/22 05:13:28;;;;;;;0.30;0.30;;;17.30;99.90;;;;;;4914504;29;20568;-72
2022/08/22 05:15:58;;;;;;;0.10;0.10;;;17.40;99.90;;;;;;4914102;29;20979;-72
2022/08/22 05:18:28;;;;;;;0.37;0.37;;;17.40;99.90;;;;;;4914643;29;20479;-73
2022/08/22 05:21:01;;;;;;;0.20;0.20;;;17.40;99.90;;;;;;4917249;29;20519;-73
2022/08/22 05:23:33;;;;;;;0.30;0.30;;;17.50;99.90;;;;;;4915896;29;20847;-72
2022/08/22 05:26:02;;;;;;;0.20;0.20;;;17.50;99.90;;;;;;4918578;29;20468;-72
2022/08/22 05:28:33;;;;;;;0.23;0.23;;;17.60;99.90;;;;;;4913799;29;20500;-72
2022/08/22 05:31:04;;;;;;;0.27;0.27;;;17.60;99.90;;;;;;4911420;29;20497;-73
2022/08/22 05:33:35;;;;;;;0.40;0.40;;;17.70;99.90;;;;;;4911442;29;20991;-73
2022/08/22 05:36:08;;;;;;;0.20;0.20;;;17.70;99.90;;;;;;4911629;29;20476;-73
2022/08/22 05:38:40;;;;;;;0.20;0.20;;;17.80;99.90;;;;;;4915615;29;20490;-73
2022/08/22 05:41:08;;;;;;;0.33;0.30;;;17.90;99.90;;;;;;4907611;29;20494;-73
2022/08/22 05:43:38;;;;;;;0.37;0.37;;;18.00;99.90;;;;;;4914389;29;20973;-72
2022/08/22 05:46:09;;;;;;;0.40;0.40;;;18.00;99.90;;;;;;4913607;29;20876;-71
2022/08/22 05:48:41;;;;;;;0.23;0.23;;;18.10;99.90;;;;;;4916599;29;20504;-72
2022/08/22 05:51:17;;;;;;;0.20;0.20;;;18.10;99.90;;;;;;4907088;29;20548;-72
2022/08/22 05:53:48;;;;;;;0.33;0.33;;;18.10;99.90;;;;;;4916095;29;20563;-72
2022/08/22 05:56:20;;;;;;;0.30;0.23;;;18.10;99.90;;;;;;4914221;29;20820;-72
2022/08/22 05:58:51;;;;;;;0.20;0.20;;;18.20;99.90;;;;;;4910104;29;20489;-72
2022/08/22 06:01:26;;;;;;;0.20;0.20;;;18.20;99.90;;;;;;4908126;29;20512;-72
2022/08/22 06:04:06;;;;;;;0.20;0.20;;;18.20;99.90;;;;;;4913442;29;20475;-72
2022/08/22 06:06:39;;;;;;;0.20;0.20;;;18.20;99.90;;;;;;4914344;29;20848;-72
2022/08/22 06:09:10;;;;;;;0.50;0.50;;;18.20;99.90;;;;;;4916788;29;20528;-71
2022/08/22 06:11:40;;;;;;;0.40;0.40;;;18.30;99.90;;;;;;4914407;29;20863;-72
2022/08/22 06:14:17;;;;;;;0.73;0.73;;;18.40;99.90;;;;;;4915859;29;20492;-71
2022/08/22 06:16:49;;;;;;;0.53;0.53;;;18.60;99.90;;;;;;4909808;29;20472;-72
2022/08/22 06:19:18;;;;;;;0.30;0.30;;;19.00;99.90;;;;;;4913602;29;20464;-75
2022/08/22 06:21:49;;;;;;;1.13;0.37;;;19.90;99.90;;;;;;4915000;29;20579;-72
2022/08/22 06:24:20;;;;;;;0.30;0.30;;;20.80;99.90;;;;;;4916185;29;20465;-70
2022/08/22 06:26:50;;;;;;;0.87;0.80;;;21.50;99.90;;;;;;4915147;29;20478;-72
2022/08/22 06:29:23;;;;;;;1.07;0.50;;;22.10;99.90;;;;;;4915660;29;20578;-71
2022/08/22 06:31:50;;;;;;;0.53;0.53;;;22.60;99.90;;;;;;4915154;29;20498;-72
2022/08/22 06:34:23;;;;;;;2.33;0.63;;;22.90;99.90;;;;;;4916134;29;20979;-75
2022/08/22 06:36:52;;;;;;;0.70;0.70;;;23.10;99.90;;;;;;4913143;29;20479;-72
2022/08/22 06:39:22;;;;;;;1.80;0.73;;;23.40;99.90;;;;;;4912912;29;20462;-72
2022/08/22 06:41:53;;;;;;;0.40;0.40;;;23.60;99.90;;;;;;4912788;29;20490;-74
2022/08/22 06:44:23;;;;;;;1.30;0.67;;;23.60;99.90;;;;;;4915768;29;20650;-74
2022/08/22 06:46:53;;;;;;;0.20;0.20;;;23.80;99.90;;;;;;4913074;29;20470;-76
2022/08/22 06:49:22;;;;;;;0.23;0.23;;;23.90;99.90;;;;;;4915782;29;20518;-74
2022/08/22 06:51:52;;;;;;;0.60;0.60;;;23.90;99.90;;;;;;4912919;29;20577;-74
2022/08/22 06:54:23;;;;;;;0.40;0.40;;;23.70;99.90;;;;;;4914992;29;20466;-74
2022/08/22 06:56:53;;;;;;;0.50;0.50;;;23.70;99.90;;;;;;4913579;29;20474;-75
2022/08/22 06:59:24;;;;;;;0.53;0.53;;;23.70;99.90;;;;;;4911875;29;20460;-73
2022/08/22 07:01:56;;;;;;;0.30;0.30;;;23.60;99.90;;;;;;4909941;29;20499;-73
2022/08/22 07:04:25;;;;;;;0.40;0.40;;;23.30;99.90;;;;;;4907453;29;20527;-74
2022/08/22 07:06:56;;;;;;;0.50;0.50;;;23.20;99.90;;;;;;4911531;29;20839;-74
2022/08/22 07:09:27;;;;;;;0.40;0.40;;;23.00;99.90;;;;;;4915271;29;20490;-73
2022/08/22 07:11:56;;;;;;;2.13;0.40;;;22.80;99.90;;;;;;4914477;29;20502;-73
2022/08/22 07:14:29;;;;;;;0.50;0.50;;;22.70;99.90;;;;;;4915108;29;20474;-74
2022/08/22 07:16:58;;;;;;;0.80;0.50;;;22.40;99.90;;;;;;4913561;29;20477;-74
2022/08/22 07:19:27;;;;;;;0.30;0.30;;;22.20;99.90;;;;;;4915353;29;20470;-73
2022/08/22 07:21:56;;;;;;;0.40;0.40;;;22.00;99.90;;;;;;4911939;29;20500;-74
2022/08/22 07:24:26;;;;;;;0.30;0.30;;;21.90;99.90;;;;;;4915165;29;20470;-74
2022/08/22 07:27:07;;;;;;;0.20;0.20;;;21.90;99.90;;;;;;4913055;29;20817;-74
2022/08/22 07:29:47;;;;;;;0.47;0.40;;;21.90;99.90;;;;;;4915612;29;20488;-73
2022/08/22 07:32:18;;;;;;;0.20;0.20;;;22.00;99.90;;;;;;4912556;29;20494;-74
2022/08/22 07:35:04;;;;;;;0.33;0.33;;;21.90;99.90;;;;;;4910643;29;20468;-74
2022/08/22 07:37:45;;;;;;;0.20;0.20;;;21.90;99.90;;;;;;4915533;29;20470;-74
2022/08/22 07:40:19;;;;;;;1.07;0.40;;;21.90;99.90;;;;;;4915057;29;20489;-73
2022/08/22 07:42:50;;;;;;;0.40;0.40;;;22.00;99.90;;;;;;4912799;29;20503;-74
2022/08/22 07:45:23;;;;;;;0.20;0.20;;;22.00;99.90;;;;;;4907033;29;20907;-74
2022/08/22 07:48:04;;;;;;;0.33;0.33;;;22.00;99.90;;;;;;4907538;29;20482;-74
2022/08/22 07:50:35;;;;;;;0.30;0.30;;;22.00;99.90;;;;;;4913515;29;20489;-73
2022/08/22 07:53:15;;;;;;;0.30;0.30;;;22.00;99.90;;;;;;4915787;29;20560;-73
2022/08/22 07:55:43;;;;;;;0.20;0.20;;;22.00;99.90;;;;;;4910096;29;20475;-72
2022/08/22 07:58:12;;;;;;;0.13;0.13;;;22.10;99.90;;;;;;4915453;29;20472;-73
2022/08/22 08:00:43;;;;;;;0.43;0.43;;;22.20;99.90;;;;;;4917988;29;20941;-73
2022/08/22 08:03:11;;;;;;;0.23;0.23;;;22.20;99.90;;;;;;4920620;29;20467;-73
2022/08/22 08:05:40;;;;;;;0.30;0.30;;;22.20;99.90;;;;;;4908821;29;20478;-74
2022/08/22 08:08:19;;;;;;;0.20;0.20;;;22.20;99.90;;;;;;4920889;29;20981;-74
2022/08/22 08:10:49;;;;;;;0.50;0.20;;;22.10;99.90;;;;;;4915048;29;20492;-73
2022/08/22 08:13:21;;;;;;;0.20;0.20;;;22.00;99.90;;;;;;4914608;29;20527;-73
2022/08/22 08:15:50;;;;;;;0.27;0.27;;;22.10;99.90;;;;;;4910584;29;20464;-75
2022/08/22 08:18:22;;;;;;;0.20;0.20;;;22.10;99.90;;;;;;4904275;29;20970;-75
2022/08/22 08:20:51;;;;;;;0.63;0.63;;;22.20;99.90;;;;;;4913547;29;20495;-75
2022/08/22 08:23:20;;;;;;;0.30;0.30;;;22.30;99.90;;;;;;4911764;29;20480;-75
2022/08/22 08:25:54;;;;;;;0.30;0.30;;;22.30;99.90;;;;;;4914304;29;20558;-75
2022/08/22 08:28:36;;;;;;;0.43;0.43;;;22.40;99.90;;;;;;4908777;29;20477;-75
2022/08/22 08:31:14;;;;;;;0.20;0.20;;;22.50;99.90;;;;;;4908667;29;20586;-75
2022/08/22 08:33:45;;;;;;;0.23;0.23;;;22.50;99.90;;;;;;4913823;29;20476;-75
2022/08/22 08:36:36;;;;;;;0.20;0.20;;;22.50;99.90;;;;;;4911480;29;20476;-75
2022/08/22 08:39:13;;;;;;;0.50;0.50;;;22.60;99.90;;;;;;4914502;29;20949;-75
2022/08/22 08:42:16;;;;;;;0.30;0.30;;;22.70;99.90;;;;;;4908017;29;20603;-75
2022/08/22 08:45:03;;;;;;;0.30;0.30;;;22.70;99.90;;;;;;4912501;29;20474;-73
2022/08/22 08:47:44;;;;;;;0.30;0.30;;;22.70;99.90;;;;;;4911652;29;20501;-74
2022/08/22 08:50:27;;;;;;;0.30;0.30;;;22.70;99.90;;;;;;4910004;29;20954;-74
2022/08/22 08:53:25;;;;;;;0.20;0.20;;;22.80;99.90;;;;;;4911062;29;20472;-74
2022/08/22 08:55:59;;;;;;;0.20;0.20;;;22.90;99.90;;;;;;4910593;29;20468;-74
2022/08/22 08:58:37;;;;;;;0.20;0.20;;;22.90;99.90;;;;;;4914797;29;20476;-73
2022/08/22 09:01:20;;;;;;;0.20;0.20;;;22.90;99.90;;;;;;4917418;29;20496;-74
2022/08/22 09:04:19;;;;;;;0.20;0.20;;;23.00;99.90;;;;;;4911018;29;20985;-75
2022/08/22 09:07:15;;;;;;;0.20;0.20;;;23.10;99.90;;;;;;4912634;29;20548;-74
2022/08/22 09:09:54;;;;;;;0.30;0.30;;;23.20;99.90;;;;;;4910948;29;20497;-73
2022/08/22 09:12:40;;;;;;;0.80;0.40;;;23.20;99.90;;;;;;4911880;29;20533;-74
2022/08/22 09:15:31;;;;;;;0.20;0.20;;;23.30;99.90;;;;;;4912850;29;20977;-74
2022/08/22 09:18:31;;;;;;;0.20;0.20;;;23.40;99.90;;;;;;4911794;29;20484;-74
2022/08/22 09:21:24;;;;;;;0.20;0.20;;;23.40;99.90;;;;;;4913697;29;20503;-74
2022/08/22 09:24:23;;;;;;;0.30;0.30;;;23.30;99.90;;;;;;4909662;29;20470;-74
2022/08/22 09:26:52;;;;;;;0.30;0.30;;;23.30;99.90;;;;;;4908491;29;20472;-75
2022/08/22 09:29:39;;;;;;;0.87;0.30;;;23.30;99.90;;;;;;4912828;29;20587;-74
2022/08/22 09:32:12;;;;;;;0.37;0.37;;;23.40;99.90;;;;;;4914140;29;20501;-73
2022/08/22 09:34:52;;;;;;;0.30;0.30;;;23.40;99.90;;;;;;4913915;29;20473;-73
2022/08/22 09:37:25;;;;;;;0.27;0.27;;;23.50;99.90;;;;;;4910865;29;20844;-74
2022/08/22 09:40:00;;;;;;;0.30;0.30;;;23.60;99.90;;;;;;4914441;29;20941;-75
2022/08/22 09:42:35;;;;;;;0.40;0.40;;;23.80;99.90;;;;;;4911842;29;20500;-73
2022/08/22 09:45:31;;;;;;;0.20;0.20;;;23.80;99.90;;;;;;4912173;29;20495;-73
2022/08/22 09:48:01;;;;;;;0.20;0.20;;;23.90;99.90;;;;;;4909149;29;20481;-75
2022/08/22 09:50:41;;;;;;;0.30;0.30;;;24.10;99.90;;;;;;4916279;29;20999;-73
2022/08/22 09:53:15;;;;;;;0.50;0.50;;;24.10;99.90;;;;;;4908576;29;20466;-74
2022/08/22 09:55:49;;;;;;;0.30;0.30;;;24.30;99.90;;;;;;4906658;29;20478;-74
2022/08/22 09:58:24;;;;;;;0.20;0.20;;;24.50;99.90;;;;;;4912855;29;20474;-74
2022/08/22 10:00:58;;;;;;;0.47;0.43;;;24.60;99.90;;;;;;4913512;29;20498;-74
2022/08/22 10:03:52;;;;;;;0.60;0.30;;;24.70;99.90;;;;;;4910769;29;20482;-75
2022/08/22 10:06:23;;;;;;;0.20;0.20;;;24.90;99.90;;;;;;4917321;29;20871;-74
2022/08/22 10:08:57;;;;;;;0.40;0.40;;;24.90;99.90;;;;;;4914522;29;20933;-74
2022/08/22 10:11:27;;;;;;;0.50;0.50;;;24.90;99.90;;;;;;4907859;29;20508;-73
2022/08/22 10:14:01;;;;;;;0.63;0.33;;;24.90;99.90;;;;;;4913369;29;20467;-75
2022/08/22 10:16:43;;;;;;;0.23;0.23;;;24.90;99.90;;;;;;4916799;29;20463;-73
2022/08/22 10:19:17;;;;;;;0.30;0.30;;;24.90;99.90;;;;;;4916135;29;20588;-73
2022/08/22 10:22:10;;;;;;;0.30;0.30;;;24.90;99.90;;;;;;4916089;29;20494;-73
2022/08/22 10:24:43;;;;;;;0.30;0.30;;;24.90;99.90;;;;;;4916043;29;20960;-73
2022/08/22 10:27:15;;;;;;;0.27;0.27;;;24.90;99.90;;;;;;4916315;29;20590;-73
2022/08/22 10:30:03;;;;;;;0.20;0.20;;;25.00;99.90;;;;;;4908143;29;20467;-72
2022/08/22 10:32:37;;;;;;;0.23;0.23;;;25.00;99.90;;;;;;4914719;29;20490;-72
2022/08/22 10:35:18;;;;;;;0.30;0.30;;;24.90;99.90;;;;;;4912522;29;20975;-74
2022/08/22 10:37:53;;;;;;;0.40;0.40;;;24.80;99.90;;;;;;4901844;29;20566;-72
2022/08/22 10:40:26;;;;;;;0.30;0.30;;;24.90;99.90;;;;;;4911495;29;20463;-71
2022/08/22 10:42:56;;;;;;;0.33;0.33;;;25.10;99.90;;;;;;4914178;29;20471;-72
2022/08/22 10:45:29;;;;;;;0.33;0.33;;;25.20;99.90;;;;;;4916294;29;20467;-73
2022/08/22 10:48:39;;;;;;;0.20;0.20;;;25.30;99.90;;;;;;4906449;29;20483;-73
2022/08/22 10:51:16;;;;;;;0.20;0.20;;;25.40;99.90;;;;;;4911791;29;20490;-72
2022/08/22 10:54:13;;;;;;;0.20;0.20;;;25.40;99.90;;;;;;4909730;29;20499;-72
2022/08/22 10:56:46;;;;;;;0.40;0.40;;;25.40;99.90;;;;;;4903811;29;20506;-73
2022/08/22 10:59:28;;;;;;;0.20;0.20;;;25.50;99.90;;;;;;4913879;29;20478;-72
2022/08/22 11:02:07;;;;;;;0.53;0.30;;;25.40;99.90;;;;;;4896268;29;20499;-73
2022/08/22 11:04:58;;;;;;;0.63;0.30;;;25.30;99.90;;;;;;4910496;29;20547;-72
2022/08/22 11:07:44;;;;;;;0.20;0.20;;;25.30;99.90;;;;;;4910958;29;20478;-73
2022/08/22 11:10:23;;;;;;;0.20;0.20;;;25.30;99.90;;;;;;4910764;29;20481;-73
2022/08/22 11:13:05;;;;;;;0.30;0.30;;;25.30;99.90;;;;;;4907494;29;20616;-73
2022/08/22 11:15:55;;;;;;;2.87;0.67;;;25.30;99.90;;;;;;4914465;29;20471;-73
2022/08/22 11:18:35;;;;;;;0.20;0.20;;;25.30;99.90;;;;;;4914142;29;20475;-73
2022/08/22 11:21:07;;;;;;;0.20;0.20;;;25.40;99.90;;;;;;4915392;29;20486;-73
2022/08/22 11:23:43;;;;;;;0.20;0.20;;;25.60;99.90;;;;;;4913296;29;20471;-73
2022/08/22 11:26:27;;;;;;;0.20;0.20;;;25.70;99.90;;;;;;4915174;29;20508;-73
2022/08/22 11:29:07;;;;;;;0.23;0.23;;;26.00;99.90;;;;;;4913833;29;20481;-73
2022/08/22 11:31:46;;;;;;;0.50;0.50;;;26.00;99.90;;;;;;4914250;29;20506;-73
2022/08/22 11:34:22;;;;;;;0.40;0.40;;;26.10;99.90;;;;;;4912613;29;20956;-73
2022/08/22 11:36:53;;;;;;;0.30;0.30;;;26.30;99.90;;;;;;4896013;29;20467;-72
2022/08/22 11:39:26;;;;;;;0.27;0.27;;;26.40;99.90;;;;;;4911290;29;20496;-72
2022/08/22 11:42:01;;;;;;;0.50;0.50;;;26.50;99.60;;;;;;4913308;29;20490;-74
2022/08/22 11:44:31;;;;;;;0.40;0.40;;;26.60;99.40;;;;;;4913406;29;20471;-72
2022/08/22 11:47:01;;;;;;;0.30;0.30;;;26.60;99.20;;;;;;4915016;29;20471;-72
2022/08/22 11:49:46;;;;;;;0.20;0.20;;;26.60;99.20;;;;;;4914353;29;20555;-72
2022/08/22 11:52:26;;;;;;;0.20;0.20;;;26.70;99.20;;;;;;4911527;29;20495;-72
2022/08/22 11:55:23;;;;;;;0.20;0.20;;;26.70;97.60;;;;;;4906369;29;20553;-72
2022/08/22 11:57:52;;;;;;;0.20;0.20;;;26.80;99.40;;;;;;4906226;29;20472;-72
2022/08/22 12:00:33;;;;;;;0.30;0.30;;;26.70;98.50;;;;;;4910372;29;20466;-73
2022/08/22 12:03:22;;;;;;;0.30;0.30;;;26.70;99.10;;;;;;4911873;29;20502;-72
2022/08/22 12:05:51;;;;;;;0.17;0.17;;;26.80;98.60;;;;;;4908745;29;20470;-72
2022/08/22 12:08:45;;;;;;;0.20;0.20;;;26.80;98.30;;;;;;4914065;29;20474;-71
2022/08/22 12:11:16;;;;;;;0.30;0.30;;;26.70;97.60;;;;;;4908907;29;20598;-72
2022/08/22 12:13:51;;;;;;;0.60;0.60;;;26.60;97.80;;;;;;4911106;29;20991;-72
2022/08/22 12:16:25;;;;;;;0.30;0.30;;;26.50;98.00;;;;;;4911515;29;20530;-72
2022/08/22 12:19:00;;;;;;;0.30;0.30;;;26.20;98.50;;;;;;4913534;29;20478;-71
2022/08/22 12:21:59;;;;;;;0.30;0.30;;;26.10;98.60;;;;;;4910290;29;20596;-72
2022/08/22 12:24:58;;;;;;;0.40;0.40;;;26.10;98.40;;;;;;4913408;29;20553;-72
2022/08/22 12:27:44;;;;;;;0.40;0.40;;;26.10;98.20;;;;;;4910071;29;20494;-71
2022/08/22 12:30:15;;;;;;;0.20;0.20;;;26.10;98.20;;;;;;4910528;29;20474;-72
2022/08/22 12:33:25;;;;;;;0.30;0.30;;;26.20;98.50;;;;;;4908443;29;20495;-72
2022/08/22 12:36:04;;;;;;;0.20;0.20;;;26.40;98.40;;;;;;4908288;29;20876;-72
2022/08/22 12:38:46;;;;;;;0.20;0.20;;;26.60;97.90;;;;;;4912449;29;20952;-71
2022/08/22 12:41:39;;;;;;;0.50;0.50;;;26.70;97.30;;;;;;4908397;29;20479;-71
2022/08/22 12:44:21;;;;;;;0.20;0.20;;;26.80;97.80;;;;;;4905391;29;20680;-71
2022/08/22 12:47:11;;;;;;;0.40;0.40;;;26.90;96.50;;;;;;4905522;29;20498;-71
2022/08/22 12:49:57;;;;;;;0.20;0.20;;;27.00;96.60;;;;;;4913699;29;20471;-71
2022/08/22 12:52:44;;;;;;;0.20;0.20;;;27.00;96.00;;;;;;4911307;29;20499;-71
2022/08/22 12:55:35;;;;;;;0.20;0.20;;;26.80;96.10;;;;;;4914684;29;20470;-71
2022/08/22 12:58:13;;;;;;;0.20;0.20;;;26.70;95.90;;;;;;4910307;29;20475;-73
2022/08/22 13:00:43;;;;;;;0.30;0.30;;;26.80;94.90;;;;;;4910537;29;20801;-72
2022/08/22 13:03:20;;;;;;;0.30;0.30;;;26.80;94.90;;;;;;4914256;29;20458;-72
2022/08/22 13:05:48;;;;;;;0.23;0.23;;;26.80;94.60;;;;;;4903226;29;20470;-72
2022/08/22 13:08:23;;;;;;;0.33;0.33;;;26.90;94.80;;;;;;4908587;29;20467;-71
2022/08/22 13:10:57;;;;;;;0.30;0.30;;;27.00;93.70;;;;;;4905458;29;21169;-72
2022/08/22 13:13:31;;;;;;;0.20;0.20;;;27.00;94.30;;;;;;4904937;29;20474;-73
2022/08/22 13:16:00;;;;;;;0.27;0.27;;;27.20;93.80;;;;;;4910704;29;20474;-72
2022/08/22 13:18:33;;;;;;;0.20;0.20;;;27.40;93.20;;;;;;4914133;29;20471;-72
2022/08/22 13:21:04;;;;;;;0.20;0.20;;;27.50;92.90;;;;;;4911323;29;20484;-72
2022/08/22 13:23:35;;;;;;;0.23;0.23;;;27.50;93.00;;;;;;4912875;29;20462;-73
2022/08/22 13:26:07;;;;;;;0.30;0.30;;;27.60;93.10;;;;;;4913108;29;20485;-72
2022/08/22 13:28:42;;;;;;;0.20;0.20;;;27.70;93.20;;;;;;4912776;29;20502;-73
2022/08/22 13:31:18;;;;;;;0.20;0.20;;;27.80;93.30;;;;;;4912828;29;20529;-72
2022/08/22 13:33:46;;;;;;;0.30;0.20;;;27.80;92.90;;;;;;4910303;29;20952;-73
2022/08/22 13:36:16;;;;;;;0.67;0.67;;;27.70;92.00;;;;;;4916976;29;20477;-73
2022/08/22 13:38:50;;;;;;;0.50;0.50;;;27.70;92.40;;;;;;4905221;29;20471;-73
2022/08/22 13:41:23;;;;;;;1.30;0.30;;;27.60;91.60;;;;;;4915116;29;20490;-72
2022/08/22 13:44:16;;;;;;;0.40;0.40;;;27.50;91.60;;;;;;4911973;29;20852;-73
2022/08/22 13:46:44;;;;;;;0.27;0.27;;;27.50;92.10;;;;;;4914474;29;20482;-73
2022/08/22 13:49:17;;;;;;;0.20;0.20;;;27.40;91.60;;;;;;4913909;29;20837;-72
2022/08/22 13:51:49;;;;;;;0.20;0.20;;;27.50;91.60;;;;;;4912140;29;20491;-72
2022/08/22 13:54:36;;;;;;;0.30;0.30;;;27.50;93.00;;;;;;4914430;29;20467;-72
2022/08/22 13:57:15;;;;;;;0.33;0.33;;;27.50;93.50;;;;;;4915439;29;20475;-72
2022/08/22 13:59:48;;;;;;;0.30;0.30;;;27.30;93.90;;;;;;4901432;29;21007;-73
2022/08/22 14:02:25;;;;;;;0.20;0.20;;;27.00;94.00;;;;;;4915869;29;20486;-72
2022/08/22 14:04:54;;;;;;;2.77;0.30;;;26.90;94.30;;;;;;4911220;29;20474;-72
2022/08/22 14:07:31;;;;;;;0.20;0.20;;;26.80;94.30;;;;;;4915031;29;20479;-72
2022/08/22 14:10:02;;;;;;;0.30;0.30;;;26.60;94.50;;;;;;4912956;29;20944;-72
2022/08/22 14:12:33;;;;;;;0.20;0.20;;;26.60;95.20;;;;;;4915036;29;20490;-72
2022/08/22 14:15:05;;;;;;;0.40;0.40;;;26.60;94.60;;;;;;4909568;29;20471;-72
2022/08/22 14:17:38;;;;;;;0.27;0.27;;;26.60;94.10;;;;;;4913019;29;20467;-72
2022/08/22 14:20:11;;;;;;;0.30;0.30;;;26.50;94.40;;;;;;4907161;29;20530;-70
2022/08/22 14:22:40;;;;;;;0.20;0.20;;;26.30;94.20;;;;;;4912906;29;20518;-73
2022/08/22 14:25:16;;;;;;;0.20;0.20;;;26.20;94.40;;;;;;4910595;29;20479;-72
2022/08/22 14:27:56;;;;;;;0.23;0.23;;;26.20;94.10;;;;;;4913054;29;20471;-72
2022/08/22 14:30:28;;;;;;;0.20;0.20;;;26.10;94.50;;;;;;4914040;29;20558;-73
2022/08/22 14:33:01;;;;;;;0.40;0.40;;;26.00;94.80;;;;;;4912501;29;20483;-72
2022/08/22 14:35:32;;;;;;;0.27;0.27;;;26.00;94.50;;;;;;4914555;29;20494;-72
2022/08/22 14:38:20;;;;;;;0.20;0.20;;;26.00;94.50;;;;;;4912925;29;20868;-72
2022/08/22 14:40:52;;;;;;;0.20;0.20;;;25.90;94.40;;;;;;4912456;29;20502;-72
2022/08/22 14:43:25;;;;;;;0.30;0.30;;;25.90;95.00;;;;;;4910504;29;20477;-71
2022/08/22 14:45:57;;;;;;;0.20;0.20;;;25.90;95.10;;;;;;4915092;29;20531;-72
2022/08/22 14:48:27;;;;;;;0.20;0.20;;;25.90;95.10;;;;;;4909992;29;20483;-72
2022/08/22 14:50:57;;;;;;;0.30;0.20;;;25.90;95.20;;;;;;4918022;29;20502;-71
2022/08/22 14:53:27;;;;;;;0.20;0.20;;;26.00;95.10;;;;;;4910172;29;20508;-72
2022/08/22 14:55:59;;;;;;;0.20;0.20;;;26.00;94.20;;;;;;4917236;29;20460;-71
2022/08/22 14:58:28;;;;;;;0.20;0.20;;;26.00;94.40;;;;;;4914573;29;20471;-72
2022/08/22 15:01:06;;;;;;;0.20;0.20;;;26.00;94.40;;;;;;4910178;29;20980;-72
2022/08/22 15:03:37;;;;;;;0.40;0.40;;;26.00;94.90;;;;;;4913469;29;20494;-73
2022/08/22 15:06:07;;;;;;;0.20;0.20;;;26.20;94.30;;;;;;4917312;29;20554;-72
2022/08/22 15:08:38;;;;;;;0.30;0.30;;;26.40;92.80;;;;;;4914982;29;20479;-71
2022/08/22 15:11:20;;;;;;;0.30;0.30;;;26.70;92.50;;;;;;4916321;29;20586;-72
2022/08/22 15:13:58;;;;;;;0.40;0.40;;;26.70;92.40;;;;;;4909038;29;20493;-73
2022/08/22 15:16:32;;;;;;;0.50;0.50;;;26.70;92.70;;;;;;4916353;29;20496;-73
2022/08/22 15:18:59;;;;;;;0.20;0.20;;;26.60;92.40;;;;;;4917306;29;20475;-73
2022/08/22 15:21:30;;;;;;;0.20;0.20;;;26.60;92.60;;;;;;4916174;29;20494;-72
2022/08/22 15:24:02;;;;;;;0.30;0.30;;;26.60;92.70;;;;;;4916239;29;20486;-72
2022/08/22 15:26:31;;;;;;;0.47;0.47;;;26.60;92.00;;;;;;4914883;29;20850;-72
2022/08/22 15:29:08;;;;;;;0.30;0.30;;;26.60;92.50;;;;;;4914501;29;20594;-73
2022/08/22 15:31:40;;;;;;;0.30;0.30;;;26.60;92.40;;;;;;4915981;29;20602;-73
2022/08/22 15:34:11;;;;;;;0.20;0.20;;;26.60;92.50;;;;;;4910876;29;20468;-72
2022/08/22 15:37:01;;;;;;;0.30;0.30;;;26.60;92.30;;;;;;4914946;29;20463;-72
2022/08/22 15:39:33;;;;;;;0.40;0.30;;;26.50;92.70;;;;;;4914862;29;20471;-74
2022/08/22 15:42:02;;;;;;;0.20;0.20;;;26.50;92.40;;;;;;4914612;29;21036;-72
2022/08/22 15:44:33;;;;;;;0.20;0.20;;;26.50;92.40;;;;;;4913775;29;20483;-72
2022/08/22 15:47:25;;;;;;;0.20;0.20;;;26.50;92.00;;;;;;4910250;29;20478;-72
2022/08/22 15:49:56;;;;;;;0.30;0.30;;;26.50;92.60;;;;;;4909586;29;20476;-73
2022/08/22 15:52:27;;;;;;;0.43;0.43;;;26.40;93.30;;;;;;4914019;29;20502;-73
2022/08/22 15:55:23;;;;;;;0.20;0.20;;;26.50;93.60;;;;;;4905141;29;20467;-73
2022/08/22 15:57:59;;;;;;;0.47;0.47;;;26.50;93.60;;;;;;4884408;29;21006;-72
2022/08/22 16:00:33;;;;;;;0.30;0.30;;;26.60;93.40;;;;;;4906691;29;20541;-71
2022/08/22 16:03:05;;;;;;;0.20;0.20;;;26.70;93.60;;;;;;4911351;29;20467;-71
2022/08/22 16:05:50;;;;;;;0.40;0.40;;;26.70;93.60;;;;;;4914190;29;20534;-72
2022/08/22 16:08:23;;;;;;;0.30;0.30;;;26.80;93.40;;;;;;4912777;29;20471;-73
2022/08/22 16:10:55;;;;;;;0.40;0.40;;;26.80;93.60;;;;;;4912119;29;20499;-72
2022/08/22 16:13:38;;;;;;;0.20;0.20;;;26.80;93.10;;;;;;4910145;29;20501;-73
2022/08/22 16:16:10;;;;;;;0.27;0.27;;;26.80;92.80;;;;;;4906741;29;20959;-73
2022/08/22 16:19:17;;;;;;;0.87;0.37;;;26.80;92.70;;;;;;4912797;29;20489;-73
2022/08/22 16:22:10;;;;;;;0.20;0.20;;;26.70;92.60;;;;;;4907068;29;20497;-73
2022/08/22 16:25:04;;;;;;;0.20;0.20;;;26.70;92.70;;;;;;4913897;29;20527;-73
2022/08/22 16:27:31;;;;;;;0.87;0.40;;;26.80;92.90;;;;;;4909498;29;20834;-73
2022/08/22 16:30:13;;;;;;;0.20;0.20;;;26.80;92.80;;;;;;4908599;29;20582;-72
2022/08/22 16:32:42;;;;;;;0.60;0.60;;;26.80;92.40;;;;;;4907581;29;20510;-72
2022/08/22 16:35:10;;;;;;;0.27;0.27;;;26.80;91.80;;;;;;4907959;29;20497;-73
2022/08/22 16:37:49;;;;;;;0.20;0.20;;;26.70;91.80;;;;;;4910011;29;20475;-73
2022/08/22 16:40:22;;;;;;;0.30;0.30;;;26.60;91.90;;;;;;4913399;29;20829;-73
2022/08/22 16:43:09;;;;;;;0.30;0.30;;;26.40;92.00;;;;;;4906344;29;20471;-74
2022/08/22 16:45:37;;;;;;;0.40;0.40;;;26.30;92.30;;;;;;4907431;29;20837;-74
2022/08/22 16:48:17;;;;;;;0.33;0.33;;;26.20;92.30;;;;;;4912978;29;20909;-73
2022/08/22 16:51:01;;;;;;;0.27;0.27;;;26.00;92.60;;;;;;4906211;29;20497;-73
2022/08/22 16:54:03;;;;;;;0.20;0.20;;;26.00;93.10;;;;;;4913764;29;20494;-73
2022/08/22 16:56:39;;;;;;;0.30;0.30;;;25.90;93.00;;;;;;4850317;29;20461;-73
2022/08/22 16:59:30;;;;;;;0.30;0.30;;;25.80;93.00;;;;;;4898157;29;20497;-73
2022/08/22 17:02:25;;;;;;;0.20;0.20;;;25.70;93.50;;;;;;4907762;29;20585;-73
2022/08/22 17:05:04;;;;;;;0.30;0.30;;;25.60;93.60;;;;;;4911737;23;20503;-71
2022/08/22 17:07:48;;;;;;;0.30;0.30;;;25.60;94.30;;;;;;4907176;29;20821;-72
2022/08/22 17:10:28;;;;;;;0.20;0.20;;;25.50;94.50;;;;;;4907712;29;20501;-71
2022/08/22 17:13:11;;;;;;;0.20;0.20;;;25.50;94.80;;;;;;4902843;29;20479;-72
2022/08/22 17:15:54;;;;;;;0.20;0.20;;;25.40;94.90;;;;;;4900866;29;20529;-71
2022/08/22 17:18:44;;;;;;;0.20;0.20;;;25.30;95.10;;;;;;4909410;29;20474;-72
2022/08/22 17:21:19;;;;;;;0.20;0.20;;;25.30;95.10;;;;;;4913021;29;20486;-70
2022/08/22 17:23:59;;;;;;;0.23;0.23;;;25.20;95.40;;;;;;4903980;29;20628;-72
2022/08/22 17:26:36;;;;;;;0.30;0.30;;;25.10;95.70;;;;;;4912511;29;20496;-72
2022/08/22 17:29:11;;;;;;;0.20;0.20;;;25.00;95.90;;;;;;4912765;29;20482;-72
2022/08/22 17:31:47;;;;;;;0.20;0.20;;;25.00;96.20;;;;;;4908209;29;20497;-72
2022/08/22 17:34:33;;;;;;;0.40;0.40;;;24.90;96.50;;;;;;4903582;29;20495;-71
2022/08/22 17:37:08;;;;;;;0.20;0.20;;;24.80;96.80;;;;;;4900983;29;20480;-72
2022/08/22 17:40:03;;;;;;;0.20;0.20;;;24.80;96.80;;;;;;4902070;29;20600;-72